createdAt,value
2023-02-16T00:00:24.143Z,1.90
2023-02-16T00:02:53.049Z,1.80
2023-02-16T00:05:27.046Z,1.67
2023-02-16T00:07:57.155Z,1.80
2023-02-16T00:10:30.799Z,1.85
2023-02-16T00:13:17.788Z,1.75
2023-02-16T00:15:49.568Z,2.08
2023-02-16T00:18:20.638Z,1.92
2023-02-16T00:20:50.404Z,1.92
2023-02-16T00:23:21.832Z,2.00
2023-02-16T00:25:52.499Z,1.90
2023-02-16T00:28:23.179Z,1.83
2023-02-16T00:30:53.564Z,1.85
2023-02-16T00:33:23.867Z,1.80
2023-02-16T00:35:53.516Z,1.90
2023-02-16T00:38:22.706Z,2.20
2023-02-16T00:40:53.487Z,1.98
2023-02-16T00:43:27.881Z,1.90
2023-02-16T00:45:58.025Z,1.88
2023-02-16T00:48:29.864Z,2.10
2023-02-16T00:51:02.610Z,1.90
2023-02-16T00:53:34.263Z,1.77
2023-02-16T00:56:04.662Z,2.00
2023-02-16T00:58:35.465Z,1.90
2023-02-16T01:01:09.794Z,2.00
2023-02-16T01:03:39.521Z,1.75
2023-02-16T01:06:26.511Z,1.90
2023-02-16T01:09:14.574Z,1.77
2023-02-16T01:11:45.450Z,1.90
2023-02-16T01:14:15.641Z,2.00
2023-02-16T01:16:45.151Z,1.95
2023-02-16T01:19:15.269Z,2.10
2023-02-16T01:21:44.151Z,1.90
2023-02-16T01:24:15.672Z,1.90
2023-02-16T01:26:48.201Z,2.08
2023-02-16T01:29:19.052Z,1.90
2023-02-16T01:31:48.379Z,1.90
2023-02-16T01:34:17.531Z,2.10
2023-02-16T01:36:49.793Z,2.00
2023-02-16T01:39:21.056Z,1.98
2023-02-16T01:42:07.896Z,2.15
2023-02-16T01:44:44.695Z,2.05
2023-02-16T01:47:28.033Z,2.20
2023-02-16T01:49:57.289Z,1.85
2023-02-16T01:52:33.227Z,1.90
2023-02-16T01:55:07.910Z,2.00
2023-02-16T01:57:46.697Z,1.80
2023-02-16T02:00:24.035Z,2.10
2023-02-16T02:03:16.225Z,2.33
2023-02-16T02:05:44.677Z,1.92
2023-02-16T02:08:25.897Z,1.92
2023-02-16T02:11:04.572Z,2.00
2023-02-16T02:13:42.531Z,1.95
2023-02-16T02:16:13.326Z,2.40
2023-02-16T02:18:42.563Z,2.10
2023-02-16T02:21:59.071Z,1.90
2023-02-16T02:25:16.112Z,1.83
2023-02-16T02:27:53.957Z,2.00
2023-02-16T02:30:41.825Z,1.80
2023-02-16T02:33:34.212Z,1.85
2023-02-16T02:36:16.463Z,2.33
2023-02-16T02:38:59.303Z,2.00
2023-02-16T02:41:49.228Z,2.00
2023-02-16T02:44:22.845Z,1.80
2023-02-16T02:46:52.738Z,2.10
2023-02-16T02:49:21.855Z,1.92
2023-02-16T02:51:51.315Z,2.20
2023-02-16T02:54:41.264Z,1.92
2023-02-16T02:57:37.091Z,1.80
2023-02-16T03:00:27.953Z,1.88
2023-02-16T03:03:02.380Z,2.10
2023-02-16T03:05:35.361Z,2.10
2023-02-16T03:08:15.918Z,2.03
2023-02-16T03:11:07.507Z,2.30
2023-02-16T03:13:39.779Z,2.03
2023-02-16T03:16:15.492Z,2.13
2023-02-16T03:19:05.159Z,1.98
2023-02-16T03:21:53.310Z,2.17
2023-02-16T03:24:44.812Z,2.10
2023-02-16T03:27:33.558Z,1.88
2023-02-16T03:30:04.798Z,2.10
2023-02-16T03:32:36.251Z,2.30
2023-02-16T03:35:09.713Z,2.28
2023-02-16T03:37:39.122Z,2.10
2023-02-16T03:40:29.874Z,2.15
2023-02-16T03:43:00.771Z,1.95
2023-02-16T03:45:30.629Z,1.95
2023-02-16T03:48:00.905Z,2.10
2023-02-16T03:50:30.429Z,2.03
2023-02-16T03:53:07.210Z,2.20
2023-02-16T03:55:37.617Z,1.98
2023-02-16T03:58:07.447Z,2.30
2023-02-16T04:00:37.154Z,2.38
2023-02-16T04:03:08.917Z,2.47
2023-02-16T04:05:38.660Z,2.58
2023-02-16T04:08:08.926Z,2.42
2023-02-16T04:10:40.818Z,2.50
2023-02-16T04:13:09.451Z,2.65
2023-02-16T04:15:38.781Z,2.80
2023-02-16T04:18:09.500Z,2.80
2023-02-16T04:20:38.776Z,2.47
2023-02-16T04:23:08.060Z,2.50
2023-02-16T04:25:37.830Z,2.50
2023-02-16T04:28:07.585Z,3.10
2023-02-16T04:30:37.418Z,3.13
2023-02-16T04:33:07.005Z,2.70
2023-02-16T04:35:37.854Z,3.05
2023-02-16T04:38:10.163Z,2.85
2023-02-16T04:40:39.319Z,2.88
2023-02-16T04:43:08.696Z,2.97
2023-02-16T04:45:37.944Z,2.58
2023-02-16T04:48:07.686Z,2.90
2023-02-16T04:50:38.372Z,2.95
2023-02-16T04:53:10.293Z,2.80
2023-02-16T04:55:39.525Z,3.15
2023-02-16T04:58:08.739Z,2.90
2023-02-16T05:00:39.071Z,2.95
2023-02-16T05:03:11.335Z,2.72
2023-02-16T05:05:42.087Z,2.55
2023-02-16T05:08:11.859Z,2.77
2023-02-16T05:10:41.638Z,2.72
2023-02-16T05:13:31.419Z,2.53
2023-02-16T05:16:00.743Z,2.80
2023-02-16T05:18:29.943Z,2.70
2023-02-16T05:21:18.304Z,2.80
2023-02-16T05:23:47.530Z,3.10
2023-02-16T05:26:17.185Z,2.75
2023-02-16T05:28:46.045Z,3.00
2023-02-16T05:31:15.205Z,3.10
2023-02-16T05:33:44.499Z,2.70
2023-02-16T05:36:18.258Z,2.60
2023-02-16T05:38:48.116Z,2.80
2023-02-16T05:41:24.925Z,2.53
2023-02-16T05:43:54.704Z,2.83
2023-02-16T05:46:25.622Z,2.78
2023-02-16T05:48:54.835Z,2.60
2023-02-16T05:51:27.104Z,2.50
2023-02-16T05:53:56.172Z,2.88
2023-02-16T05:56:25.507Z,2.80
2023-02-16T05:58:55.363Z,2.50
2023-02-16T06:01:24.700Z,2.80
2023-02-16T06:03:53.891Z,2.78
2023-02-16T06:06:23.374Z,2.47
2023-02-16T06:08:54.012Z,2.70
2023-02-16T06:11:38.354Z,2.50
2023-02-16T06:14:11.946Z,2.40
2023-02-16T06:16:43.708Z,2.72
2023-02-16T06:19:12.970Z,2.45
2023-02-16T06:21:42.357Z,2.63
2023-02-16T06:24:14.503Z,2.63
2023-02-16T06:26:43.788Z,2.58
2023-02-16T06:29:12.815Z,2.40
2023-02-16T06:31:41.838Z,2.55
2023-02-16T06:34:10.961Z,2.60
2023-02-16T06:36:42.417Z,2.50
2023-02-16T06:39:13.001Z,2.70
2023-02-16T06:41:42.260Z,2.60
2023-02-16T06:44:13.868Z,2.60
2023-02-16T06:46:43.312Z,2.60
2023-02-16T06:49:14.655Z,3.00
2023-02-16T06:51:44.005Z,3.00
2023-02-16T06:54:14.592Z,2.42
2023-02-16T06:56:44.058Z,2.80
2023-02-16T06:59:13.294Z,2.50
2023-02-16T07:01:44.225Z,2.75
2023-02-16T07:04:14.187Z,2.53
2023-02-16T07:06:43.524Z,2.38
2023-02-16T07:09:14.289Z,2.70
2023-02-16T07:11:43.986Z,2.83
2023-02-16T07:14:13.343Z,2.65
2023-02-16T07:16:42.509Z,2.42
2023-02-16T07:19:12.307Z,5.18
2023-02-16T07:21:41.600Z,2.60
2023-02-16T07:24:14.805Z,2.70
2023-02-16T07:26:44.118Z,2.67
2023-02-16T07:29:13.445Z,2.75
2023-02-16T07:31:42.691Z,140.13
2023-02-16T07:36:44.700Z,249.00
2023-02-16T07:39:15.412Z,170.13
2023-02-16T07:41:44.650Z,220.45
2023-02-16T07:44:13.479Z,238.27
2023-02-16T07:46:42.600Z,253.18
2023-02-16T07:49:42.352Z,265.23
2023-02-16T07:52:11.905Z,265.00
2023-02-16T07:54:42.659Z,267.08
2023-02-16T07:57:11.948Z,266.90
2023-02-16T07:59:41.195Z,264.75
2023-02-16T08:02:17.568Z,270.95
2023-02-16T08:04:46.619Z,264.75
2023-02-16T08:07:16.006Z,266.63
2023-02-16T08:09:46.772Z,270.20
2023-02-16T08:12:17.425Z,2.70
2023-02-16T08:14:49.586Z,269.08
2023-02-16T08:17:18.532Z,247.75
2023-02-16T08:19:49.880Z,273.90
2023-02-16T08:22:21.514Z,274.45
2023-02-16T08:24:51.927Z,2.25
2023-02-16T08:27:21.501Z,2.40
2023-02-16T08:29:50.427Z,2.50
2023-02-16T08:32:20.406Z,2.58
2023-02-16T08:34:49.513Z,2.60
2023-02-16T08:37:18.776Z,2.20
2023-02-16T08:39:49.278Z,2.42
2023-02-16T08:42:22.431Z,2.75
2023-02-16T08:44:51.250Z,2.35
2023-02-16T08:47:21.098Z,2.90
2023-02-16T08:49:50.091Z,2.60
2023-02-16T08:52:19.948Z,2.30
2023-02-16T08:54:49.782Z,2.63
2023-02-16T08:57:19.547Z,274.25
2023-02-16T09:00:12.750Z,273.98
2023-02-16T09:02:42.164Z,273.38
2023-02-16T09:05:11.467Z,274.17
2023-02-16T09:07:43.044Z,273.50
2023-02-16T09:10:12.358Z,3.00
2023-02-16T09:12:43.857Z,2.30
2023-02-16T09:17:46.107Z,6.65
2023-02-16T09:20:15.878Z,273.58
2023-02-16T09:22:47.738Z,273.88
2023-02-16T09:25:18.793Z,273.85
2023-02-16T09:27:48.195Z,274.77
2023-02-16T09:30:18.872Z,2.50
2023-02-16T09:32:50.970Z,2.42
2023-02-16T09:35:21.510Z,272.40
2023-02-16T09:37:54.321Z,271.40
2023-02-16T09:40:24.023Z,2.58
2023-02-16T09:43:04.718Z,2.60
2023-02-16T09:45:44.114Z,2.35
2023-02-16T09:48:23.626Z,2.40
2023-02-16T09:50:55.729Z,2.50
2023-02-16T09:53:37.634Z,2.40
2023-02-16T09:56:20.438Z,2.25
2023-02-16T09:58:57.727Z,2.38
2023-02-16T10:01:35.554Z,2.33
2023-02-16T10:04:25.869Z,2.38
2023-02-16T10:07:04.148Z,2.33
2023-02-16T10:09:35.943Z,2.40
2023-02-16T10:12:10.239Z,2.28
2023-02-16T10:14:43.937Z,2.20
2023-02-16T10:17:28.513Z,2.38
2023-02-16T10:20:02.592Z,2.42
2023-02-16T10:22:36.616Z,2.08
2023-02-16T10:25:10.084Z,2.35
2023-02-16T10:27:41.164Z,2.45
2023-02-16T10:30:15.691Z,2.40
2023-02-16T10:32:57.029Z,2.50
2023-02-16T10:35:33.784Z,2.20
2023-02-16T10:38:10.088Z,2.47
2023-02-16T10:40:50.842Z,276.00
2023-02-16T10:43:26.663Z,276.17
2023-02-16T10:45:59.470Z,275.70
2023-02-16T10:48:30.712Z,277.27
2023-02-16T10:51:03.838Z,276.08
2023-02-16T10:53:40.808Z,277.35
2023-02-16T10:56:37.709Z,275.75
2023-02-16T10:59:15.546Z,275.50
2023-02-16T11:01:47.362Z,275.10
2023-02-16T11:04:39.273Z,275.67
2023-02-16T11:07:11.480Z,275.40
2023-02-16T11:09:42.653Z,2.30
2023-02-16T11:12:27.290Z,272.65
2023-02-16T11:14:59.011Z,272.40
2023-02-16T11:17:29.075Z,2.40
2023-02-16T11:20:02.274Z,2.08
2023-02-16T11:22:35.660Z,2.20
2023-02-16T11:25:27.127Z,1.90
2023-02-16T11:37:13.607Z,2.10
2023-02-16T11:41:04.951Z,1.90
2023-02-16T11:43:38.731Z,272.92
2023-02-16T11:46:12.851Z,271.95
2023-02-16T11:48:42.213Z,271.35
2023-02-16T11:51:15.966Z,273.48
2023-02-16T11:53:46.298Z,273.60
2023-02-16T11:56:24.488Z,273.02
2023-02-16T11:59:16.002Z,272.42
2023-02-16T12:02:04.848Z,272.90
2023-02-16T12:04:52.989Z,272.48
2023-02-16T12:07:32.590Z,272.88
2023-02-16T12:10:09.259Z,273.42
2023-02-16T12:12:50.634Z,272.08
2023-02-16T12:15:26.834Z,272.40
2023-02-16T12:18:16.235Z,272.80
2023-02-16T12:20:54.871Z,273.20
2023-02-16T12:23:39.685Z,272.67
2023-02-16T12:26:31.745Z,273.52
2023-02-16T12:29:11.487Z,272.33
2023-02-16T12:32:04.493Z,261.15
2023-02-16T12:34:48.829Z,240.40
2023-02-16T12:37:24.980Z,9.10
2023-02-16T12:40:01.093Z,273.25
2023-02-16T12:42:51.246Z,262.58
2023-02-16T12:54:40.220Z,272.73
2023-02-16T12:57:14.700Z,274.27
2023-02-16T12:59:50.656Z,1.30
2023-02-16T13:02:25.120Z,260.50
2023-02-16T13:05:01.174Z,46.90
2023-02-16T13:07:37.159Z,188.25
2023-02-16T13:10:15.653Z,271.58
2023-02-16T13:12:51.999Z,267.42
2023-02-16T13:15:23.598Z,264.42
2023-02-16T13:17:57.753Z,266.58
2023-02-16T13:20:27.437Z,1.50
2023-02-16T13:23:23.749Z,217.57
2023-02-16T13:26:18.150Z,208.75
2023-02-16T13:29:11.496Z,1.60
2023-02-16T13:31:54.748Z,1.60
2023-02-16T13:34:55.622Z,1.42
2023-02-16T13:37:34.920Z,1.30
2023-02-16T13:40:31.182Z,250.80
2023-02-16T13:43:18.150Z,233.75
2023-02-16T13:45:53.912Z,233.48
2023-02-16T13:48:30.641Z,255.85
2023-02-16T13:59:15.411Z,275.58
2023-02-16T15:03:26.705Z,1.30
2023-02-16T15:10:29.510Z,1.20
2023-02-16T15:12:59.288Z,1.23
2023-02-16T15:15:45.959Z,1.20
2023-02-16T15:18:18.672Z,1.30
2023-02-16T15:20:51.294Z,1.00
2023-02-16T15:23:23.061Z,1.33
2023-02-16T15:25:59.865Z,0.95
2023-02-16T15:28:31.140Z,1.05
2023-02-16T15:31:02.817Z,1.42
2023-02-16T15:33:39.172Z,1.10
2023-02-16T15:36:12.977Z,1.00
2023-02-16T15:38:43.360Z,1.02
2023-02-16T15:41:17.248Z,1.20
2023-02-16T15:43:48.424Z,1.00
2023-02-16T15:46:27.512Z,1.02
2023-02-16T15:49:00.257Z,1.08
2023-02-16T15:51:32.894Z,1.10
2023-02-16T15:54:03.638Z,1.00
2023-02-16T15:56:39.778Z,1.00
2023-02-16T15:59:32.935Z,1.13
2023-02-16T16:02:10.457Z,1.00
2023-02-16T16:04:41.979Z,1.00
2023-02-16T16:07:16.436Z,1.45
2023-02-16T16:09:46.703Z,2.70
2023-02-16T16:12:20.847Z,3.35
2023-02-16T16:14:53.324Z,3.63
2023-02-16T16:17:28.153Z,2.58
2023-02-16T16:19:58.298Z,2.22
2023-02-16T16:30:45.608Z,2.13
2023-02-16T16:33:17.156Z,2.35
2023-02-16T16:38:27.764Z,2.35
2023-02-16T16:40:59.253Z,2.10
2023-02-16T16:43:31.122Z,2.40
2023-02-16T16:46:14.368Z,2.20
2023-02-16T16:48:47.646Z,1.98
2023-02-16T16:51:21.310Z,1.88
2023-02-16T16:53:55.695Z,1.95
2023-02-16T16:56:25.884Z,1.80
2023-02-16T16:58:57.040Z,1.90
2023-02-16T17:01:30.713Z,2.20
2023-02-16T17:04:02.424Z,1.90
2023-02-16T17:06:32.919Z,1.95
2023-02-16T17:09:03.441Z,2.00
2023-02-16T17:11:35.617Z,1.95
2023-02-16T17:14:10.369Z,2.35
2023-02-16T17:16:44.565Z,2.50
2023-02-16T17:19:15.255Z,2.08
2023-02-16T17:21:44.664Z,1.90
2023-02-16T17:24:13.902Z,2.10
2023-02-16T17:26:43.159Z,1.70
2023-02-16T17:29:14.913Z,1.67
2023-02-16T17:31:45.783Z,1.67
2023-02-16T17:34:14.975Z,1.80
2023-02-16T17:36:44.059Z,1.48
2023-02-16T17:39:12.971Z,1.50
2023-02-16T17:41:42.268Z,1.45
2023-02-16T17:44:11.490Z,1.33
2023-02-16T17:46:41.260Z,1.38
2023-02-16T17:49:13.597Z,1.27
2023-02-16T17:51:42.849Z,1.30
2023-02-16T17:54:12.026Z,1.25
2023-02-16T17:56:41.637Z,1.13
2023-02-16T17:59:15.395Z,1.20
2023-02-16T18:01:45.157Z,1.40
2023-02-16T18:04:15.588Z,1.00
2023-02-16T18:06:44.453Z,1.00
2023-02-16T18:09:20.809Z,1.10
2023-02-16T18:11:49.899Z,1.20
2023-02-16T18:14:21.155Z,1.10
2023-02-16T18:16:53.657Z,1.10
2023-02-16T18:19:24.318Z,1.10
2023-02-16T18:21:53.625Z,1.07
2023-02-16T18:24:23.392Z,1.13
2023-02-16T18:26:55.186Z,1.00
2023-02-16T18:29:24.308Z,1.08
2023-02-16T18:31:53.401Z,0.95
2023-02-16T18:34:25.383Z,1.10
2023-02-16T18:36:55.586Z,1.10
2023-02-16T18:39:24.510Z,1.10
2023-02-16T18:41:53.264Z,1.20
2023-02-16T18:44:22.283Z,1.15
2023-02-16T18:46:51.089Z,1.27
2023-02-16T18:49:19.926Z,1.30
2023-02-16T18:51:53.338Z,1.10
2023-02-16T18:54:22.224Z,1.20
2023-02-16T18:56:51.339Z,1.20
2023-02-16T18:59:20.331Z,1.20
2023-02-16T19:01:49.167Z,1.15
2023-02-16T19:04:18.511Z,1.20
2023-02-16T19:06:50.211Z,1.20
2023-02-16T19:09:21.491Z,1.10
2023-02-16T19:11:50.630Z,1.23
2023-02-16T19:14:19.917Z,1.20
2023-02-16T19:16:49.035Z,1.10
2023-02-16T19:19:17.924Z,1.10
2023-02-16T19:21:47.232Z,1.30
2023-02-16T19:24:16.198Z,1.08
2023-02-16T19:26:46.609Z,1.30
2023-02-16T19:29:18.473Z,1.10
2023-02-16T19:31:50.521Z,1.08
2023-02-16T19:34:20.009Z,1.10
2023-02-16T19:36:49.292Z,1.17
2023-02-16T19:39:18.409Z,1.13
2023-02-16T19:41:51.540Z,1.10
2023-02-16T19:44:23.179Z,1.10
2023-02-16T19:46:52.376Z,1.10
2023-02-16T19:49:23.715Z,0.93
2023-02-16T19:51:53.418Z,1.10
2023-02-16T19:54:22.175Z,0.90
2023-02-16T19:56:54.286Z,1.08
2023-02-16T19:59:24.614Z,1.00
2023-02-16T20:01:53.914Z,1.20
2023-02-16T20:04:23.140Z,1.10
2023-02-16T20:06:54.598Z,1.10
2023-02-16T20:09:24.401Z,1.10
2023-02-16T20:11:58.107Z,1.20
2023-02-16T20:14:27.002Z,1.10
2023-02-16T20:16:56.189Z,1.00
2023-02-16T20:19:25.551Z,1.00
2023-02-16T20:24:25.927Z,0.90
2023-02-16T20:26:54.807Z,1.10
2023-02-16T20:29:25.319Z,1.10
2023-02-16T20:31:57.228Z,1.00
2023-02-16T20:34:27.776Z,0.90
2023-02-16T20:36:56.633Z,1.00
2023-02-16T20:39:25.839Z,0.90
2023-02-16T20:44:29.756Z,0.93
2023-02-16T20:46:59.035Z,1.02
2023-02-16T20:49:28.559Z,1.35
2023-02-16T20:51:57.935Z,0.88
2023-02-16T20:54:27.210Z,1.00
2023-02-16T20:56:56.159Z,1.00
2023-02-16T20:59:25.064Z,1.10
2023-02-16T21:01:55.671Z,0.98
2023-02-16T21:04:25.063Z,1.10
2023-02-16T21:06:53.948Z,0.80
2023-02-16T21:09:22.786Z,1.10
2023-02-16T21:11:51.854Z,0.90
2023-02-16T21:14:22.754Z,1.10
2023-02-16T21:16:55.037Z,1.10
2023-02-16T21:19:26.803Z,0.90
2023-02-16T21:21:56.036Z,1.00
2023-02-16T21:24:43.364Z,0.95
2023-02-16T21:27:13.368Z,1.08
2023-02-16T21:29:42.399Z,0.80
2023-02-16T21:32:13.049Z,1.10
2023-02-16T21:34:42.262Z,1.03
2023-02-16T21:37:13.675Z,1.05
2023-02-16T21:40:00.018Z,0.90
2023-02-16T21:42:28.932Z,1.10
2023-02-16T21:45:11.719Z,0.90
2023-02-16T21:48:01.612Z,1.20
2023-02-16T21:50:32.852Z,1.00
2023-02-16T21:53:02.052Z,0.90
2023-02-16T21:55:48.540Z,1.10
2023-02-16T21:58:18.196Z,0.80
2023-02-16T22:00:52.087Z,1.05
2023-02-16T22:05:54.044Z,1.00
2023-02-16T22:08:23.380Z,1.00
2023-02-16T22:10:52.235Z,1.00
2023-02-16T22:13:23.413Z,0.90
2023-02-16T22:15:52.360Z,1.10
2023-02-16T22:18:22.596Z,1.05
2023-02-16T22:20:51.125Z,1.10
2023-02-16T22:23:19.980Z,1.00
2023-02-16T22:25:50.937Z,1.08
2023-02-16T22:28:20.008Z,0.90
2023-02-16T22:30:49.145Z,0.98
2023-02-16T22:35:51.309Z,1.05
2023-02-16T22:38:23.628Z,0.98
2023-02-16T22:40:52.956Z,1.10
2023-02-16T22:43:22.116Z,0.93
2023-02-16T22:45:51.374Z,0.82
2023-02-16T22:48:25.137Z,1.08
2023-02-16T22:51:00.420Z,1.10
2023-02-16T22:53:30.557Z,0.90
2023-02-16T22:56:03.336Z,1.00
2023-02-16T22:58:32.959Z,0.90
2023-02-16T23:01:02.306Z,1.00
2023-02-16T23:03:33.011Z,1.02
2023-02-16T23:06:02.387Z,0.80
2023-02-16T23:08:31.485Z,0.90
2023-02-16T23:11:04.906Z,1.10
2023-02-16T23:13:35.627Z,1.02
2023-02-16T23:16:06.674Z,0.90
2023-02-16T23:18:37.302Z,0.80
2023-02-16T23:21:07.893Z,1.00
2023-02-16T23:23:37.134Z,0.90
2023-02-16T23:26:08.345Z,0.90
2023-02-16T23:28:38.428Z,1.08
2023-02-16T23:31:08.114Z,1.00
2023-02-16T23:33:38.602Z,1.00
2023-02-16T23:36:08.441Z,0.80
2023-02-16T23:38:40.035Z,1.00
2023-02-16T23:41:12.372Z,0.80
2023-02-16T23:43:41.580Z,0.90
2023-02-16T23:46:11.352Z,0.93
2023-02-16T23:48:42.096Z,0.85
2023-02-16T23:51:12.184Z,0.87
2023-02-16T23:53:42.191Z,1.08
2023-02-16T23:56:16.911Z,0.90
2023-02-16T23:58:47.033Z,0.90
